• Join FlightAware (Why Join?)
  • Login
  • US Flag 
09:48AM EDT


 

Airport Tracker/Info


-or-


 

Live Flight TrackerFlight Track Log ✈ CHQ6101 ✈ 20-Apr-2014 ✈ KLGA - KBGR

Flight Track Log - Related Links

Times and Time Zones

All times are in EDT time to prevent confusion due to time zone crossing. See the CHQ6101 flight status page for this flight to view local times or setup timezone preferences in your user account.

Time Position Orientation Groundspeed Altitude Reporting Facility
EDT Latitude Longitude Course Direction KTS MPH feet Rate Location/Type
01:56PM 40.7500 -73.8500 27° Northeast 158 182 1,800  Level New York TRACON
01:58PM 40.8114 -73.7572 49° Northeast 223 257 6,400 2,220 Climbing Boston Center
01:59PM 41.1321 -73.5842 28° Northeast  Level FlightAware Approximate
01:59PM 40.8806 -73.7156 24° Northeast 268 308 9,000  Level Boston Center
02:00PM 41.2209 -73.5068 33° Northeast  Level FlightAware Approximate
02:00PM 40.9481 -73.6692 27° Northeast 271 312 11,300  Level Boston Center
02:01PM 41.3126 -73.4360 27° Northeast  Level FlightAware Approximate
02:01PM 41.0383 -73.6097 26° Northeast 310 357 13,500  Level Boston Center
02:02PM 41.1047 -73.5292 42° Northeast 326 375 15,100 1,500 Climbing Boston Center
02:03PM 41.1736 -73.4414 44° Northeast 339 390 16,600 1,260 Climbing Boston Center
02:04PM 41.2492 -73.3589 39° Northeast 350 403 17,800 1,560 Climbing Boston Center
02:05PM 41.3419 -73.2997 26° Northeast 351 404 19,900 1,920 Climbing Boston Center
02:06PM 41.4267 -73.2394 28° Northeast 350 403 21,800 1,920 Climbing Boston Center
02:07PM 41.5006 -73.1531 41° Northeast 349 402 23,900 1,860 Climbing Boston Center
02:08PM 41.5658 -73.0725 43° Northeast 351 404 25,700 1,500 Climbing Boston Center
02:09PM 41.6383 -72.9853 42° Northeast 351 404 27,000 600 Climbing Boston Center
02:10PM 41.7133 -72.8947 42° Northeast 361 415 27,000  Level Boston Center
02:11PM 41.8058 -72.7797 43° Northeast 375 432 27,000  Level Boston Center
02:12PM 41.8836 -72.6847 42° Northeast 377 434 27,000  Level Boston Center
02:13PM 41.9619 -72.5883 42° Northeast 380 437 27,000  Level Boston Center
02:14PM 42.0406 -72.4914 42° Northeast 383 441 27,000  Level Boston Center
02:15PM 42.1186 -72.3936 43° Northeast 384 442 27,000  Level Boston Center
02:16PM 42.1978 -72.2964 42° Northeast 386 444 27,000  Level Boston Center
02:17PM 42.2758 -72.1972 43° Northeast 386 444 27,000  Level Boston Center
02:18PM 42.3553 -72.0972 43° Northeast 389 448 27,000  Level Boston Center
02:19PM 42.4500 -71.9783 43° Northeast 389 448 27,000  Level Boston Center
02:20PM 42.5286 -71.8781 43° Northeast 389 448 27,000  Level Boston Center
02:22PM 42.6078 -71.7781 43° Northeast 390 449 27,000  Level Boston Center
02:23PM 42.6869 -71.6769 43° Northeast 390 449 27,000  Level Boston Center
02:24PM 42.7656 -71.5753 43° Northeast 390 449 27,000  Level Boston Center
02:25PM 42.8517 -71.4667 43° Northeast 390 449 27,000  Level Boston Center
02:26PM 42.9314 -71.3650 43° Northeast 391 450 27,000  Level Boston Center
02:27PM 43.0106 -71.2619 44° Northeast 391 450 27,000  Level Boston Center
02:28PM 43.0897 -71.1586 44° Northeast 391 450 27,000  Level Boston Center
02:29PM 43.1697 -71.0542 44° Northeast 397 457 27,000  Level Boston Center
02:30PM 43.2511 -70.9489 43° Northeast 397 457 27,000 -120 Level Boston Center
02:31PM 43.3303 -70.8419 44° Northeast 398 458 26,800 -1,200 Descending Boston Center
02:32PM 43.4217 -70.7239 43° Northeast 384 442 24,600 -1,800 Descending Boston Center
02:33PM 43.4961 -70.6250 44° Northeast 374 430 23,200 -1,860 Descending Boston Center
02:34PM 43.5681 -70.5294 44° Northeast 362 417 20,900 -2,280 Descending Boston Center
02:35PM 43.6414 -70.4325 44° Northeast 356 410 18,600 -1,980 Descending Boston Center
02:36PM 43.7147 -70.3344 44° Northeast 347 399 16,900 -1,740 Descending Boston Center
02:37PM 43.7789 -70.2467 45° Northeast 332 382 15,100 -1,860 Descending Boston Center
02:38PM 43.8450 -70.1581 44° Northeast 317 365 13,100 -1,980 Descending Boston Center
02:39PM 43.9053 -70.0778 44° Northeast 306 352 11,100 -1,080 Descending Boston Center
02:40PM 43.9672 -69.9942 44° Northeast 312 359 11,000 -60 Descending Boston Center
02:41PM 44.0333 -69.9039 44° Northeast 309 356 11,000  Level Boston Center
02:42PM 44.0917 -69.8242 44° Northeast 297 342 11,000  Level Boston Center
02:43PM 44.1494 -69.7464 44° Northeast 292 336 11,100  Climbing Boston Center
02:44PM 44.2072 -69.6647 45° Northeast 291 335 11,000  Descending Boston Center
02:45PM 44.2675 -69.5861 43° Northeast 295 339 11,100  Climbing Boston Center
02:46PM 44.3364 -69.5186 35° Northeast 300 345 11,100 -120 Level Boston Center
02:47PM 44.4050 -69.4472 37° Northeast 304 350 10,900 -720 Descending Boston Center
02:48PM 44.4689 -69.3789 37° Northeast 295 339 9,700 -1,140 Descending Boston Center
02:49PM 44.5247 -69.3222 36° Northeast 260 299 8,700 -1,080 Descending Boston Center
02:50PM 44.5750 -69.2706 36° Northeast 233 268 7,600 -1,200 Descending Boston Center
02:51PM 44.6225 -69.2186 38° Northeast 222 255 6,300 -1,260 Descending Boston Center
02:52PM 44.6806 -69.1589 36° Northeast 220 253 5,100 -780 Descending Boston Center
02:53PM 44.7286 -69.1083 37° Northeast 219 252 4,800 -720 Descending Boston Center
02:54PM 44.7761 -69.0575 37° Northeast 219 252 3,700 -900 Descending Boston Center
02:55PM 44.8217 -69.0089 37° Northeast 212 244 3,000 -540 Descending Boston Center
02:56PM 44.8619 -68.9672 36° Northeast 190 219 2,600 -720 Descending Boston Center
02:57PM 44.8622 -68.9128 90° East 169 194 1,600 -900 Descending Boston Center
02:58PM 44.8356 -68.8700 131° Southeast 152 175 800 -660 Descending Boston Center
02:59PM 44.8056 -68.8267 134° Southeast 147 169 300 -540 Descending Boston Center